Terminal Aerodrome Forecast
Issued by NWS

Home | Current Version | Previous Version | Graphics & Text | Print | Product List | Glossary On
Versions: 1 2 3 4 5 6 7 8 9 10 11 12 13
005
FTUS42 KMHX 082333
TAFPGV
TAF
KPGV 082333Z 0900/0924 22005KT P6SM SCT030 BKN060
      TEMPO 0901/0903 VRB20KT 6SM SHRA BKN025
     FM090500 26004KT P6SM SCT030
     FM091400 27010G17KT P6SM SCT050
      AMD LTD TO CLD VIS AND WIND=

USA.gov is the U.S. government's official web portal to all federal, state and local government web resources and services.